Ana Sayfa
METAR-TAF:

METAR-TAF

Havaalanları :

Pocono Mountains Municipal Airport

Mount Pocono, Pensilvanya, Amerika Birleşik Devletleri

Enlem: 41-08-20N, Boylam: 075-23-46W, yükseklik: 584 m

Güncel hava durumu gözlemi

Rapor saat 17:24 UTC de 28 dakika önce yapıldı.
Rüzgar batı/güneybatıdan 8 kt
Sıcaklık -2°C
Nem 69%
Basınç 1019 hPa
Görüş mesafesi: 16.1 km
3000 ft yükseklikte çok bulutlu

METAR: KMPO 071724Z AUTO 24008KT 10SM OVC030 M02/M07 A3009 RMK AO2 T10171067

Saat: 12:52 (17:52 UTC)


TAF: eksik

4.000'den fazla havaalanı için hava durumu gözlemleri ve tahminleri (METAR ve TAF raporları).

Kullanılabilir istasyonlar harita üzerinde sarı ve kırmızı noktalarla gösterilir.

İstasyonun adını görmek için fareyi noktanın üzerinde gezdirin.

Sonrasında hava gözlem ve tahminlerini görmek için tıklayın.

Haritayı değiştirmek için: yaklaştırmak için siyah artı işaretli yeşil düğmeye ve uzaklaştırmak için de eksi işaretli düğmeye hızla tıklayın; bitişik haritalar için yeşil okları kullanın.


METAR-TAF: